West Camp, New York
Current Conditions -  °F | °C
As of 10:53 AM on Friday 24 Oct 2014 (Local Time) from KPOU Reporting Station
Overcast Overcast  
Wind Chill: 54°   Ceiling: 3900
Heat Index: 54°   Visibility: 10mi
Dew Point: 44°   Wind: 9mph
Humidity: 69%   Direction: 350°N
Pressure: 29.82"   Gusts: NA
Location:  42.12°N, 73.94°W
Report Text: KPOU 241453Z 35008KT 10SM OVC039 12/07 A2982 RMK AO2 SLP094 60000 T01220067 58001
Loading
Personal Weather Stations






























Interactive Weather Map
Tropical Storm Tracking
New forecast layout! Learn more

10-Day Weather Forecast

Advertisements
Track Severe Weather on mobile